SAS9032 EFHK-ESSA
Flight info
| Callsign | SAS9032 |
|---|---|
| Flight time | 0h 45m |
| Altitude | 30000 |
| Route | ADIVO Y365 POGOK DCT RUNGA N872 XILAN |
| Aircraft | B738/M-SDE2E3FGHIRWXY/LB1 |
Departure
| Time | 2026-04-23 07:33 |
|---|---|
| Airport | Helsinki Vantaa Airport (EFHK) |
Arrival
| Time | 2026-04-23 08:19 |
|---|---|
| Airport | Stockholm-Arlanda Airport (ESSA) |
| Time | Latitude | Longitude | Altitude | Speed | Heading |
|---|---|---|---|---|---|
| 2026-04-23 07:18 | 60.31134 | 24.97584 | 159 ft | 0 kts | 244° |
| 2026-04-23 07:27 | 60.31140 | 24.97608 | 159 ft | 2 kts | 244° |
| 2026-04-23 07:27 | 60.31148 | 24.97638 | 158 ft | 2 kts | 241° |
| 2026-04-23 07:27 | 60.31156 | 24.97667 | 158 ft | 2 kts | 238° |
| 2026-04-23 07:27 | 60.31166 | 24.97694 | 158 ft | 2 kts | 229° |
| 2026-04-23 07:28 | 60.31178 | 24.97716 | 158 ft | 2 kts | 195° |
| 2026-04-23 07:28 | 60.31190 | 24.97715 | 158 ft | 1 kts | 152° |
| 2026-04-23 07:28 | 60.31191 | 24.97714 | 158 ft | 0 kts | 152° |
| 2026-04-23 07:30 | 60.31182 | 24.97723 | 158 ft | 4 kts | 152° |
| 2026-04-23 07:30 | 60.31151 | 24.97783 | 158 ft | 9 kts | 104° |
| 2026-04-23 07:31 | 60.31179 | 24.97918 | 158 ft | 12 kts | 59° |
| 2026-04-23 07:31 | 60.31149 | 24.98041 | 158 ft | 12 kts | 153° |
| 2026-04-23 07:31 | 60.31065 | 24.98128 | 157 ft | 15 kts | 153° |
| 2026-04-23 07:31 | 60.30958 | 24.98223 | 157 ft | 18 kts | 157° |
| 2026-04-23 07:32 | 60.30829 | 24.98334 | 156 ft | 22 kts | 156° |
| 2026-04-23 07:32 | 60.30687 | 24.98477 | 156 ft | 23 kts | 132° |
| 2026-04-23 07:32 | 60.30700 | 24.98750 | 158 ft | 17 kts | 39° |
| 2026-04-23 07:32 | 60.30776 | 24.98752 | 158 ft | 0 kts | 333° |
| 2026-04-23 07:33 | 60.30780 | 24.98747 | 158 ft | 2 kts | 333° |
| 2026-04-23 07:33 | 60.30887 | 24.98637 | 156 ft | 55 kts | 333° |
| 2026-04-23 07:33 | 60.31495 | 24.98020 | 158 ft | 137 kts | 333° |
| 2026-04-23 07:33 | 60.32377 | 24.97095 | 916 ft | 148 kts | 335° |
| 2026-04-23 07:34 | 60.33260 | 24.96163 | 2122 ft | 146 kts | 334° |
| 2026-04-23 07:34 | 60.34153 | 24.94806 | 2757 ft | 178 kts | 320° |
| 2026-04-23 07:34 | 60.34980 | 24.92646 | 3028 ft | 211 kts | 304° |
| 2026-04-23 07:34 | 60.35482 | 24.89737 | 3643 ft | 229 kts | 286° |
| 2026-04-23 07:35 | 60.35449 | 24.86363 | 4173 ft | 259 kts | 264° |
| 2026-04-23 07:35 | 60.34674 | 24.82889 | 4936 ft | 283 kts | 242° |
| 2026-04-23 07:35 | 60.33539 | 24.79594 | 5887 ft | 286 kts | 244° |
| 2026-04-23 07:35 | 60.32504 | 24.76160 | 6810 ft | 288 kts | 247° |
| 2026-04-23 07:36 | 60.31502 | 24.72611 | 7607 ft | 295 kts | 248° |
| 2026-04-23 07:36 | 60.30491 | 24.68969 | 8454 ft | 299 kts | 249° |
| 2026-04-23 07:36 | 60.29692 | 24.65197 | 9226 ft | 292 kts | 270° |
| 2026-04-23 07:36 | 60.29713 | 24.61189 | 10144 ft | 280 kts | 284° |
| 2026-04-23 07:37 | 60.29790 | 24.57141 | 10616 ft | 301 kts | 281° |
| 2026-04-23 07:37 | 60.29813 | 24.54258 | 10736 ft | 319 kts | 280° |
| 2026-04-23 07:37 | 60.29823 | 24.48172 | 11506 ft | 333 kts | 279° |
| 2026-04-23 07:37 | 60.29818 | 24.43491 | 12350 ft | 335 kts | 279° |
| 2026-04-23 07:38 | 60.29813 | 24.38780 | 13186 ft | 338 kts | 280° |
| 2026-04-23 07:38 | 60.29812 | 24.34023 | 13965 ft | 341 kts | 280° |
| 2026-04-23 07:38 | 60.29813 | 24.29213 | 14663 ft | 345 kts | 280° |
| 2026-04-23 07:38 | 60.29814 | 24.25931 | 15142 ft | 347 kts | 280° |
| 2026-04-23 07:39 | 60.29815 | 24.21040 | 15857 ft | 350 kts | 280° |
| 2026-04-23 07:39 | 60.29815 | 24.16109 | 16558 ft | 354 kts | 280° |
| 2026-04-23 07:39 | 60.29816 | 24.11126 | 17230 ft | 358 kts | 280° |
| 2026-04-23 07:39 | 60.29813 | 24.06140 | 17906 ft | 362 kts | 280° |
| 2026-04-23 07:40 | 60.29809 | 24.01057 | 18534 ft | 365 kts | 280° |
| 2026-04-23 07:40 | 60.29801 | 23.98715 | 18802 ft | 368 kts | 278° |
| 2026-04-23 07:40 | 60.29759 | 23.96990 | 18985 ft | 373 kts | 275° |
| 2026-04-23 07:41 | 60.29368 | 23.91732 | 19570 ft | 384 kts | 269° |
| 2026-04-23 07:41 | 60.28780 | 23.86436 | 20162 ft | 389 kts | 266° |
| 2026-04-23 07:41 | 60.28131 | 23.81111 | 20697 ft | 394 kts | 266° |
| 2026-04-23 07:41 | 60.27473 | 23.75733 | 21246 ft | 397 kts | 267° |
| 2026-04-23 07:42 | 60.26824 | 23.70299 | 21786 ft | 400 kts | 267° |
| 2026-04-23 07:42 | 60.26189 | 23.64835 | 22345 ft | 402 kts | 268° |
| 2026-04-23 07:42 | 60.25560 | 23.59311 | 22867 ft | 406 kts | 268° |
| 2026-04-23 07:42 | 60.24933 | 23.53753 | 23451 ft | 407 kts | 268° |
| 2026-04-23 07:43 | 60.24308 | 23.48217 | 24093 ft | 404 kts | 269° |
| 2026-04-23 07:43 | 60.23686 | 23.42725 | 24772 ft | 400 kts | 269° |
| 2026-04-23 07:43 | 60.23068 | 23.37274 | 25377 ft | 399 kts | 270° |
| 2026-04-23 07:43 | 60.22453 | 23.31840 | 25928 ft | 398 kts | 270° |
| 2026-04-23 07:44 | 60.21838 | 23.26415 | 26503 ft | 397 kts | 270° |
| 2026-04-23 07:44 | 60.21223 | 23.21027 | 27132 ft | 394 kts | 271° |
| 2026-04-23 07:44 | 60.20609 | 23.15672 | 27739 ft | 392 kts | 271° |
| 2026-04-23 07:44 | 60.19996 | 23.10322 | 28033 ft | 395 kts | 271° |
| 2026-04-23 07:45 | 60.19378 | 23.04920 | 28006 ft | 395 kts | 271° |
| 2026-04-23 07:45 | 60.18135 | 22.94248 | 28018 ft | 391 kts | 271° |
| 2026-04-23 07:46 | 60.16891 | 22.83590 | 28022 ft | 393 kts | 271° |
| 2026-04-23 07:46 | 60.15633 | 22.72902 | 28040 ft | 394 kts | 271° |
| 2026-04-23 07:47 | 60.14361 | 22.62190 | 28039 ft | 394 kts | 271° |
| 2026-04-23 07:47 | 60.13085 | 22.51512 | 28034 ft | 393 kts | 270° |
| 2026-04-23 07:48 | 60.11807 | 22.40850 | 28023 ft | 393 kts | 270° |
| 2026-04-23 07:48 | 60.10522 | 22.30212 | 28034 ft | 392 kts | 270° |
| 2026-04-23 07:49 | 60.09233 | 22.19614 | 28042 ft | 391 kts | 270° |
| 2026-04-23 07:49 | 60.07938 | 22.09032 | 28040 ft | 391 kts | 270° |
| 2026-04-23 07:50 | 60.06634 | 21.98460 | 28046 ft | 391 kts | 270° |
| 2026-04-23 07:50 | 60.05322 | 21.87899 | 28046 ft | 391 kts | 270° |
| 2026-04-23 07:51 | 60.04000 | 21.77333 | 28050 ft | 391 kts | 270° |
| 2026-04-23 07:51 | 60.02669 | 21.66772 | 28069 ft | 392 kts | 269° |
| 2026-04-23 07:52 | 60.01328 | 21.56198 | 28060 ft | 392 kts | 269° |
| 2026-04-23 07:52 | 59.99980 | 21.45642 | 28075 ft | 392 kts | 269° |
| 2026-04-23 07:53 | 59.98610 | 21.35096 | 28059 ft | 393 kts | 268° |
| 2026-04-23 07:53 | 59.97158 | 21.24650 | 28054 ft | 385 kts | 268° |
| 2026-04-23 07:54 | 59.95718 | 21.14462 | 28089 ft | 380 kts | 268° |
| 2026-04-23 07:54 | 59.94299 | 21.04313 | 27811 ft | 383 kts | 268° |
| 2026-04-23 07:54 | 59.93581 | 20.99207 | 27440 ft | 380 kts | 268° |
| 2026-04-23 07:55 | 59.92866 | 20.94195 | 27221 ft | 373 kts | 268° |
| 2026-04-23 07:55 | 59.92159 | 20.89208 | 26706 ft | 375 kts | 268° |
| 2026-04-23 07:55 | 59.91444 | 20.84188 | 26487 ft | 368 kts | 267° |
| 2026-04-23 07:55 | 59.90755 | 20.79349 | 25976 ft | 370 kts | 267° |
| 2026-04-23 07:56 | 59.90056 | 20.74447 | 25754 ft | 364 kts | 267° |
| 2026-04-23 07:56 | 59.89361 | 20.69605 | 25245 ft | 367 kts | 267° |
| 2026-04-23 07:56 | 59.88665 | 20.64751 | 25031 ft | 360 kts | 266° |
| 2026-04-23 07:56 | 59.87973 | 20.59948 | 24501 ft | 364 kts | 266° |
| 2026-04-23 07:57 | 59.87278 | 20.55139 | 24308 ft | 358 kts | 266° |
| 2026-04-23 07:57 | 59.86585 | 20.50354 | 23804 ft | 361 kts | 266° |
| 2026-04-23 07:57 | 59.85891 | 20.45583 | 23529 ft | 357 kts | 266° |
| 2026-04-23 07:57 | 59.85198 | 20.40819 | 23022 ft | 359 kts | 265° |
| 2026-04-23 07:58 | 59.84505 | 20.36097 | 22763 ft | 353 kts | 265° |
| 2026-04-23 07:58 | 59.83816 | 20.31401 | 22327 ft | 354 kts | 265° |
| 2026-04-23 07:58 | 59.83129 | 20.26733 | 22002 ft | 351 kts | 265° |
| 2026-04-23 07:58 | 59.82444 | 20.22089 | 21625 ft | 349 kts | 265° |
| 2026-04-23 07:59 | 59.81761 | 20.17476 | 21286 ft | 347 kts | 265° |
| 2026-04-23 07:59 | 59.81080 | 20.12878 | 20936 ft | 346 kts | 264° |
| 2026-04-23 07:59 | 59.80400 | 20.08308 | 20592 ft | 344 kts | 264° |
| 2026-04-23 07:59 | 59.79723 | 20.03763 | 20244 ft | 343 kts | 264° |
| 2026-04-23 08:00 | 59.79046 | 19.99232 | 19904 ft | 342 kts | 264° |
| 2026-04-23 08:00 | 59.78368 | 19.94711 | 19559 ft | 341 kts | 264° |
| 2026-04-23 08:00 | 59.77692 | 19.90210 | 19212 ft | 340 kts | 264° |
| 2026-04-23 08:00 | 59.77016 | 19.85718 | 18871 ft | 339 kts | 264° |
| 2026-04-23 08:01 | 59.76341 | 19.81238 | 18531 ft | 339 kts | 263° |
| 2026-04-23 08:01 | 59.75662 | 19.76757 | 18125 ft | 339 kts | 263° |
| 2026-04-23 08:01 | 59.74983 | 19.72291 | 17775 ft | 337 kts | 263° |
| 2026-04-23 08:01 | 59.74340 | 19.67837 | 17399 ft | 335 kts | 264° |
| 2026-04-23 08:02 | 59.73727 | 19.63401 | 17060 ft | 333 kts | 264° |
| 2026-04-23 08:02 | 59.73122 | 19.58989 | 16725 ft | 331 kts | 264° |
| 2026-04-23 08:02 | 59.72520 | 19.54609 | 16388 ft | 329 kts | 264° |
| 2026-04-23 08:02 | 59.71918 | 19.50251 | 16049 ft | 327 kts | 264° |
| 2026-04-23 08:03 | 59.71316 | 19.45918 | 15726 ft | 325 kts | 263° |
| 2026-04-23 08:03 | 59.70722 | 19.41666 | 15389 ft | 324 kts | 263° |
| 2026-04-23 08:03 | 59.70113 | 19.37324 | 15060 ft | 322 kts | 263° |
| 2026-04-23 08:03 | 59.69513 | 19.33055 | 14729 ft | 321 kts | 263° |
| 2026-04-23 08:04 | 59.68921 | 19.28861 | 14410 ft | 320 kts | 263° |
| 2026-04-23 08:04 | 59.68323 | 19.24632 | 14079 ft | 319 kts | 263° |
| 2026-04-23 08:04 | 59.67727 | 19.20419 | 13735 ft | 317 kts | 262° |
| 2026-04-23 08:04 | 59.67130 | 19.16217 | 13368 ft | 316 kts | 262° |
| 2026-04-23 08:05 | 59.66534 | 19.12043 | 13024 ft | 315 kts | 262° |
| 2026-04-23 08:05 | 59.65939 | 19.07890 | 12689 ft | 313 kts | 262° |
| 2026-04-23 08:05 | 59.65339 | 19.03767 | 12360 ft | 311 kts | 261° |
| 2026-04-23 08:05 | 59.64733 | 18.99675 | 12031 ft | 310 kts | 261° |
| 2026-04-23 08:06 | 59.64125 | 18.95588 | 11707 ft | 309 kts | 261° |
| 2026-04-23 08:06 | 59.63520 | 18.91523 | 11386 ft | 308 kts | 261° |
| 2026-04-23 08:06 | 59.62917 | 18.87469 | 11056 ft | 307 kts | 261° |
| 2026-04-23 08:06 | 59.62316 | 18.83429 | 10741 ft | 306 kts | 260° |
| 2026-04-23 08:07 | 59.61715 | 18.79405 | 10416 ft | 305 kts | 260° |
| 2026-04-23 08:07 | 59.61115 | 18.75410 | 10224 ft | 299 kts | 260° |
| 2026-04-23 08:07 | 59.60531 | 18.71539 | 10091 ft | 292 kts | 260° |
| 2026-04-23 08:07 | 59.59954 | 18.67733 | 10027 ft | 283 kts | 260° |
| 2026-04-23 08:08 | 59.59382 | 18.63955 | 9413 ft | 293 kts | 260° |
| 2026-04-23 08:08 | 59.58805 | 18.60145 | 9170 ft | 290 kts | 259° |
| 2026-04-23 08:08 | 59.58225 | 18.56326 | 8822 ft | 290 kts | 259° |
| 2026-04-23 08:09 | 59.57858 | 18.53924 | 8645 ft | 289 kts | 259° |
| 2026-04-23 08:09 | 59.57278 | 18.50140 | 8330 ft | 288 kts | 259° |
| 2026-04-23 08:09 | 59.56702 | 18.46387 | 8041 ft | 286 kts | 258° |
| 2026-04-23 08:09 | 59.56072 | 18.42645 | 7757 ft | 286 kts | 256° |
| 2026-04-23 08:10 | 59.55413 | 18.38926 | 7367 ft | 289 kts | 255° |
| 2026-04-23 08:10 | 59.54749 | 18.35202 | 7098 ft | 287 kts | 255° |
| 2026-04-23 08:10 | 59.53446 | 18.27853 | 6503 ft | 278 kts | 255° |
| 2026-04-23 08:11 | 59.52820 | 18.24310 | 6212 ft | 271 kts | 255° |
| 2026-04-23 08:11 | 59.52206 | 18.20845 | 5928 ft | 265 kts | 255° |
| 2026-04-23 08:11 | 59.51607 | 18.17467 | 5647 ft | 258 kts | 255° |
| 2026-04-23 08:11 | 59.51021 | 18.14175 | 5414 ft | 252 kts | 254° |
| 2026-04-23 08:12 | 59.50232 | 18.11105 | 5129 ft | 251 kts | 241° |
| 2026-04-23 08:12 | 59.49265 | 18.08337 | 4964 ft | 243 kts | 239° |
| 2026-04-23 08:12 | 59.48313 | 18.05619 | 4697 ft | 237 kts | 240° |
| 2026-04-23 08:12 | 59.47411 | 18.02999 | 4447 ft | 227 kts | 240° |
| 2026-04-23 08:13 | 59.46551 | 18.00469 | 4211 ft | 217 kts | 241° |
| 2026-04-23 08:13 | 59.45834 | 17.97957 | 3953 ft | 204 kts | 261° |
| 2026-04-23 08:13 | 59.45935 | 17.95375 | 3859 ft | 186 kts | 290° |
| 2026-04-23 08:13 | 59.46229 | 17.92845 | 3643 ft | 192 kts | 285° |
| 2026-04-23 08:14 | 59.46451 | 17.90354 | 3458 ft | 183 kts | 284° |
| 2026-04-23 08:14 | 59.46679 | 17.87979 | 3292 ft | 168 kts | 294° |
| 2026-04-23 08:14 | 59.47386 | 17.86379 | 3155 ft | 153 kts | 339° |
| 2026-04-23 08:14 | 59.48413 | 17.85894 | 3048 ft | 150 kts | 354° |
| 2026-04-23 08:15 | 59.49398 | 17.86234 | 3125 ft | 143 kts | 15° |
| 2026-04-23 08:15 | 59.50448 | 17.86611 | 2573 ft | 171 kts | 2° |
| 2026-04-23 08:15 | 59.51568 | 17.86880 | 2560 ft | 143 kts | 8° |
| 2026-04-23 08:15 | 59.52559 | 17.87257 | 2350 ft | 148 kts | 8° |
| 2026-04-23 08:16 | 59.53548 | 17.87625 | 2209 ft | 146 kts | 8° |
| 2026-04-23 08:16 | 59.54534 | 17.88022 | 1992 ft | 145 kts | 7° |
| 2026-04-23 08:16 | 59.55506 | 17.88351 | 1831 ft | 142 kts | 7° |
| 2026-04-23 08:16 | 59.56467 | 17.88689 | 1633 ft | 139 kts | 7° |
| 2026-04-23 08:17 | 59.57414 | 17.89031 | 1455 ft | 139 kts | 7° |
| 2026-04-23 08:17 | 59.58368 | 17.89379 | 1255 ft | 138 kts | 7° |
| 2026-04-23 08:17 | 59.59318 | 17.89724 | 1055 ft | 139 kts | 7° |
| 2026-04-23 08:17 | 59.60268 | 17.90067 | 845 ft | 137 kts | 8° |
| 2026-04-23 08:18 | 59.61196 | 17.90406 | 647 ft | 136 kts | 8° |
| 2026-04-23 08:18 | 59.62142 | 17.90746 | 472 ft | 142 kts | 7° |
| 2026-04-23 08:18 | 59.63104 | 17.91095 | 284 ft | 140 kts | 8° |
| 2026-04-23 08:18 | 59.64047 | 17.91440 | 120 ft | 133 kts | 8° |
| 2026-04-23 08:19 | 59.64866 | 17.91732 | 105 ft | 101 kts | 11° |
| 2026-04-23 08:19 | 59.65411 | 17.91933 | 105 ft | 58 kts | 10° |
| 2026-04-23 08:19 | 59.65658 | 17.92061 | 107 ft | 15 kts | 29° |
| 2026-04-23 08:19 | 59.65674 | 17.92079 | 107 ft | 0 kts | 28° |
| 2026-04-23 08:20 | 59.65675 | 17.92079 | 107 ft | 0 kts | 28° |
| 2026-04-23 08:20 | 59.65675 | 17.92080 | 107 ft | 0 kts | 28° |
| 2026-04-23 08:21 | 59.65726 | 17.92143 | 105 ft | 15 kts | 35° |
| 2026-04-23 08:21 | 59.65793 | 17.92295 | 104 ft | 15 kts | 79° |
| 2026-04-23 08:21 | 59.65725 | 17.92412 | 104 ft | 15 kts | 188° |
| 2026-04-23 08:22 | 59.65626 | 17.92366 | 104 ft | 14 kts | 192° |
| 2026-04-23 08:22 | 59.65529 | 17.92342 | 104 ft | 14 kts | 189° |
| 2026-04-23 08:22 | 59.65437 | 17.92309 | 104 ft | 13 kts | 191° |
| 2026-04-23 08:22 | 59.65348 | 17.92284 | 104 ft | 13 kts | 172° |
| 2026-04-23 08:23 | 59.65291 | 17.92402 | 109 ft | 12 kts | 106° |
| 2026-04-23 08:23 | 59.65252 | 17.92546 | 111 ft | 12 kts | 150° |
| 2026-04-23 08:23 | 59.65181 | 17.92600 | 109 ft | 6 kts | 160° |
| 2026-04-23 08:23 | 59.65167 | 17.92610 | 111 ft | 0 kts | 160° |